sensor_id;sensor_type;location;lat;lon;timestamp;P1;durP1;ratioP1;P2;durP2;ratioP2
10341;SDS011;5216;54.602;18.356;2022-11-14T00:02:10;5.13;;;3.20;;
10341;SDS011;5216;54.602;18.356;2022-11-14T00:04:37;3.93;;;3.20;;
10341;SDS011;5216;54.602;18.356;2022-11-14T00:07:03;4.70;;;3.33;;
10341;SDS011;5216;54.602;18.356;2022-11-14T00:09:30;3.77;;;2.87;;
10341;SDS011;5216;54.602;18.356;2022-11-14T00:11:56;6.30;;;3.20;;
10341;SDS011;5216;54.602;18.356;2022-11-14T00:14:23;5.50;;;3.00;;
10341;SDS011;5216;54.602;18.356;2022-11-14T00:16:49;7.13;;;3.33;;
10341;SDS011;5216;54.602;18.356;2022-11-14T00:19:18;5.27;;;3.43;;
10341;SDS011;5216;54.602;18.356;2022-11-14T00:21:45;5.90;;;2.93;;
10341;SDS011;5216;54.602;18.356;2022-11-14T00:24:11;5.77;;;3.40;;
10341;SDS011;5216;54.602;18.356;2022-11-14T00:26:38;5.10;;;3.33;;
10341;SDS011;5216;54.602;18.356;2022-11-14T00:29:04;4.80;;;3.40;;
10341;SDS011;5216;54.602;18.356;2022-11-14T00:31:31;5.10;;;3.50;;
10341;SDS011;5216;54.602;18.356;2022-11-14T00:33:57;4.83;;;3.60;;
10341;SDS011;5216;54.602;18.356;2022-11-14T00:36:24;5.07;;;3.90;;
10341;SDS011;5216;54.602;18.356;2022-11-14T00:38:53;4.97;;;3.57;;
10341;SDS011;5216;54.602;18.356;2022-11-14T00:41:20;4.67;;;3.17;;
10341;SDS011;5216;54.602;18.356;2022-11-14T00:43:47;5.50;;;3.40;;
10341;SDS011;5216;54.602;18.356;2022-11-14T00:46:13;4.73;;;3.67;;
10341;SDS011;5216;54.602;18.356;2022-11-14T00:48:39;5.53;;;4.07;;
10341;SDS011;5216;54.602;18.356;2022-11-14T00:51:06;6.00;;;3.63;;
10341;SDS011;5216;54.602;18.356;2022-11-14T00:53:33;5.30;;;3.60;;
10341;SDS011;5216;54.602;18.356;2022-11-14T00:55:59;4.50;;;3.57;;
10341;SDS011;5216;54.602;18.356;2022-11-14T00:58:26;4.70;;;3.70;;
10341;SDS011;5216;54.602;18.356;2022-11-14T01:00:53;6.53;;;3.57;;
10341;SDS011;5216;54.602;18.356;2022-11-14T01:03:19;5.67;;;3.77;;
10341;SDS011;5216;54.602;18.356;2022-11-14T01:05:47;5.37;;;3.93;;
10341;SDS011;5216;54.602;18.356;2022-11-14T01:08:14;7.10;;;3.70;;
10341;SDS011;5216;54.602;18.356;2022-11-14T01:10:42;4.03;;;3.50;;
10341;SDS011;5216;54.602;18.356;2022-11-14T01:13:09;5.80;;;3.60;;
10341;SDS011;5216;54.602;18.356;2022-11-14T01:15:54;4.70;;;3.17;;
10341;SDS011;5216;54.602;18.356;2022-11-14T01:18:21;4.50;;;3.70;;
10341;SDS011;5216;54.602;18.356;2022-11-14T01:20:47;5.47;;;3.90;;
10341;SDS011;5216;54.602;18.356;2022-11-14T01:23:14;5.63;;;3.77;;
10341;SDS011;5216;54.602;18.356;2022-11-14T01:25:41;4.60;;;3.70;;
10341;SDS011;5216;54.602;18.356;2022-11-14T01:28:09;5.03;;;3.93;;
10341;SDS011;5216;54.602;18.356;2022-11-14T01:30:36;4.60;;;3.77;;
10341;SDS011;5216;54.602;18.356;2022-11-14T01:33:02;5.30;;;4.80;;
10341;SDS011;5216;54.602;18.356;2022-11-14T01:35:30;5.13;;;4.30;;
10341;SDS011;5216;54.602;18.356;2022-11-14T01:37:56;5.33;;;4.23;;
10341;SDS011;5216;54.602;18.356;2022-11-14T01:40:23;4.50;;;4.10;;
10341;SDS011;5216;54.602;18.356;2022-11-14T01:45:51;5.67;;;4.27;;
10341;SDS011;5216;54.602;18.356;2022-11-14T01:48:20;5.83;;;4.60;;
10341;SDS011;5216;54.602;18.356;2022-11-14T01:50:49;7.40;;;4.47;;
10341;SDS011;5216;54.602;18.356;2022-11-14T01:53:19;6.57;;;4.97;;
10341;SDS011;5216;54.602;18.356;2022-11-14T01:55:46;5.83;;;4.97;;
10341;SDS011;5216;54.602;18.356;2022-11-14T01:58:13;6.93;;;4.90;;
10341;SDS011;5216;54.602;18.356;2022-11-14T02:00:40;5.17;;;4.23;;
10341;SDS011;5216;54.602;18.356;2022-11-14T02:03:07;5.23;;;4.73;;
10341;SDS011;5216;54.602;18.356;2022-11-14T02:05:33;6.20;;;5.00;;
10341;SDS011;5216;54.602;18.356;2022-11-14T02:08:00;5.50;;;5.00;;
10341;SDS011;5216;54.602;18.356;2022-11-14T02:10:26;5.90;;;4.60;;
10341;SDS011;5216;54.602;18.356;2022-11-14T02:12:53;5.07;;;4.33;;
10341;SDS011;5216;54.602;18.356;2022-11-14T02:15:19;4.30;;;3.67;;
10341;SDS011;5216;54.602;18.356;2022-11-14T02:17:46;4.30;;;3.37;;
10341;SDS011;5216;54.602;18.356;2022-11-14T02:22:42;5.47;;;3.63;;
10341;SDS011;5216;54.602;18.356;2022-11-14T02:25:09;5.30;;;3.30;;
10341;SDS011;5216;54.602;18.356;2022-11-14T02:27:37;3.50;;;3.20;;
10341;SDS011;5216;54.602;18.356;2022-11-14T02:30:05;4.03;;;3.40;;
10341;SDS011;5216;54.602;18.356;2022-11-14T02:32:32;3.83;;;3.43;;
10341;SDS011;5216;54.602;18.356;2022-11-14T02:35:18;4.17;;;3.07;;
10341;SDS011;5216;54.602;18.356;2022-11-14T02:37:48;3.40;;;3.10;;
10341;SDS011;5216;54.602;18.356;2022-11-14T02:40:14;4.53;;;3.00;;
10341;SDS011;5216;54.602;18.356;2022-11-14T02:42:40;3.40;;;2.97;;
10341;SDS011;5216;54.602;18.356;2022-11-14T02:45:07;3.97;;;2.97;;
10341;SDS011;5216;54.602;18.356;2022-11-14T02:47:34;3.10;;;2.80;;
10341;SDS011;5216;54.602;18.356;2022-11-14T02:50:01;2.93;;;2.50;;
10341;SDS011;5216;54.602;18.356;2022-11-14T02:52:27;4.97;;;3.10;;
10341;SDS011;5216;54.602;18.356;2022-11-14T02:54:53;3.17;;;2.57;;
10341;SDS011;5216;54.602;18.356;2022-11-14T02:57:20;3.37;;;2.63;;
10341;SDS011;5216;54.602;18.356;2022-11-14T02:59:46;2.80;;;2.50;;
10341;SDS011;5216;54.602;18.356;2022-11-14T03:02:13;2.63;;;2.43;;
10341;SDS011;5216;54.602;18.356;2022-11-14T03:04:39;3.67;;;2.60;;
10341;SDS011;5216;54.602;18.356;2022-11-14T03:07:06;3.97;;;2.63;;
10341;SDS011;5216;54.602;18.356;2022-11-14T03:09:32;2.47;;;2.20;;
10341;SDS011;5216;54.602;18.356;2022-11-14T03:11:59;2.90;;;2.37;;
10341;SDS011;5216;54.602;18.356;2022-11-14T03:14:30;4.20;;;2.67;;
10341;SDS011;5216;54.602;18.356;2022-11-14T03:16:56;2.93;;;2.40;;
10341;SDS011;5216;54.602;18.356;2022-11-14T03:19:23;3.70;;;2.50;;
10341;SDS011;5216;54.602;18.356;2022-11-14T03:21:49;3.27;;;2.63;;
10341;SDS011;5216;54.602;18.356;2022-11-14T03:24:16;2.40;;;2.20;;
10341;SDS011;5216;54.602;18.356;2022-11-14T03:26:42;3.57;;;2.47;;
10341;SDS011;5216;54.602;18.356;2022-11-14T03:29:09;3.10;;;2.70;;
10341;SDS011;5216;54.602;18.356;2022-11-14T03:31:35;3.43;;;2.73;;
10341;SDS011;5216;54.602;18.356;2022-11-14T03:34:02;5.53;;;2.50;;
10341;SDS011;5216;54.602;18.356;2022-11-14T03:36:28;3.40;;;2.47;;
10341;SDS011;5216;54.602;18.356;2022-11-14T03:38:55;3.70;;;2.40;;
10341;SDS011;5216;54.602;18.356;2022-11-14T03:41:21;3.87;;;2.53;;
10341;SDS011;5216;54.602;18.356;2022-11-14T03:43:48;3.87;;;2.47;;
10341;SDS011;5216;54.602;18.356;2022-11-14T03:46:14;3.07;;;2.50;;
10341;SDS011;5216;54.602;18.356;2022-11-14T03:48:41;3.03;;;2.60;;
10341;SDS011;5216;54.602;18.356;2022-11-14T03:51:08;3.97;;;2.93;;
10341;SDS011;5216;54.602;18.356;2022-11-14T03:53:34;4.53;;;3.70;;
10341;SDS011;5216;54.602;18.356;2022-11-14T03:56:01;4.30;;;3.70;;
10341;SDS011;5216;54.602;18.356;2022-11-14T03:58:27;4.50;;;3.50;;
10341;SDS011;5216;54.602;18.356;2022-11-14T04:00:54;4.40;;;3.70;;
10341;SDS011;5216;54.602;18.356;2022-11-14T04:03:22;4.00;;;3.60;;
10341;SDS011;5216;54.602;18.356;2022-11-14T04:05:48;6.07;;;4.10;;
10341;SDS011;5216;54.602;18.356;2022-11-14T04:08:15;5.43;;;3.70;;
10341;SDS011;5216;54.602;18.356;2022-11-14T04:10:45;4.30;;;3.90;;
10341;SDS011;5216;54.602;18.356;2022-11-14T04:13:11;5.00;;;4.20;;
10341;SDS011;5216;54.602;18.356;2022-11-14T04:15:38;4.07;;;3.60;;
10341;SDS011;5216;54.602;18.356;2022-11-14T04:18:04;5.77;;;3.83;;
10341;SDS011;5216;54.602;18.356;2022-11-14T04:20:31;4.57;;;3.57;;
10341;SDS011;5216;54.602;18.356;2022-11-14T04:22:57;4.33;;;3.60;;
10341;SDS011;5216;54.602;18.356;2022-11-14T04:25:24;4.30;;;3.87;;
10341;SDS011;5216;54.602;18.356;2022-11-14T04:27:50;5.13;;;3.80;;
10341;SDS011;5216;54.602;18.356;2022-11-14T04:30:17;4.60;;;3.97;;
10341;SDS011;5216;54.602;18.356;2022-11-14T04:32:44;5.10;;;3.87;;
10341;SDS011;5216;54.602;18.356;2022-11-14T04:35:10;5.40;;;4.10;;
10341;SDS011;5216;54.602;18.356;2022-11-14T04:37:37;4.93;;;4.07;;
10341;SDS011;5216;54.602;18.356;2022-11-14T04:40:04;4.40;;;4.00;;
10341;SDS011;5216;54.602;18.356;2022-11-14T04:42:31;5.50;;;4.10;;
10341;SDS011;5216;54.602;18.356;2022-11-14T04:44:57;5.20;;;4.17;;
10341;SDS011;5216;54.602;18.356;2022-11-14T04:47:24;4.63;;;3.97;;
10341;SDS011;5216;54.602;18.356;2022-11-14T04:49:50;4.90;;;4.03;;
10341;SDS011;5216;54.602;18.356;2022-11-14T04:52:17;5.37;;;3.97;;
10341;SDS011;5216;54.602;18.356;2022-11-14T04:54:43;5.03;;;4.20;;
10341;SDS011;5216;54.602;18.356;2022-11-14T04:57:10;4.60;;;3.90;;
10341;SDS011;5216;54.602;18.356;2022-11-14T04:59:36;5.10;;;4.60;;
10341;SDS011;5216;54.602;18.356;2022-11-14T05:02:03;5.70;;;4.43;;
10341;SDS011;5216;54.602;18.356;2022-11-14T05:04:29;5.37;;;4.30;;
10341;SDS011;5216;54.602;18.356;2022-11-14T05:06:56;6.13;;;4.60;;
10341;SDS011;5216;54.602;18.356;2022-11-14T05:09:22;6.40;;;4.57;;
10341;SDS011;5216;54.602;18.356;2022-11-14T05:11:49;6.40;;;4.63;;
10341;SDS011;5216;54.602;18.356;2022-11-14T05:14:15;5.77;;;4.77;;
10341;SDS011;5216;54.602;18.356;2022-11-14T05:16:42;5.77;;;4.63;;
10341;SDS011;5216;54.602;18.356;2022-11-14T05:19:08;6.30;;;5.10;;
10341;SDS011;5216;54.602;18.356;2022-11-14T05:21:35;6.30;;;4.60;;
10341;SDS011;5216;54.602;18.356;2022-11-14T05:24:01;5.83;;;4.77;;
10341;SDS011;5216;54.602;18.356;2022-11-14T05:26:27;6.67;;;5.20;;
10341;SDS011;5216;54.602;18.356;2022-11-14T05:28:54;5.97;;;4.50;;
10341;SDS011;5216;54.602;18.356;2022-11-14T05:31:20;8.87;;;5.57;;
10341;SDS011;5216;54.602;18.356;2022-11-14T05:33:49;5.93;;;5.33;;
10341;SDS011;5216;54.602;18.356;2022-11-14T05:36:16;7.63;;;5.53;;
10341;SDS011;5216;54.602;18.356;2022-11-14T05:38:43;7.73;;;5.60;;
10341;SDS011;5216;54.602;18.356;2022-11-14T05:41:11;6.20;;;5.53;;
10341;SDS011;5216;54.602;18.356;2022-11-14T05:43:37;7.33;;;6.47;;
10341;SDS011;5216;54.602;18.356;2022-11-14T05:46:05;6.30;;;5.57;;
10341;SDS011;5216;54.602;18.356;2022-11-14T05:48:32;6.33;;;5.53;;
10341;SDS011;5216;54.602;18.356;2022-11-14T05:50:59;6.23;;;5.63;;
10341;SDS011;5216;54.602;18.356;2022-11-14T05:53:27;7.00;;;6.20;;
10341;SDS011;5216;54.602;18.356;2022-11-14T05:55:54;7.27;;;6.50;;
10341;SDS011;5216;54.602;18.356;2022-11-14T05:58:21;6.63;;;5.90;;
10341;SDS011;5216;54.602;18.356;2022-11-14T06:00:47;6.87;;;5.70;;
10341;SDS011;5216;54.602;18.356;2022-11-14T06:03:19;6.60;;;5.87;;
10341;SDS011;5216;54.602;18.356;2022-11-14T06:05:46;7.40;;;6.60;;
10341;SDS011;5216;54.602;18.356;2022-11-14T06:08:12;8.13;;;6.23;;
10341;SDS011;5216;54.602;18.356;2022-11-14T06:10:39;7.90;;;6.43;;
10341;SDS011;5216;54.602;18.356;2022-11-14T06:13:05;8.80;;;6.13;;
10341;SDS011;5216;54.602;18.356;2022-11-14T06:15:32;7.57;;;6.10;;
10341;SDS011;5216;54.602;18.356;2022-11-14T06:17:58;7.17;;;6.47;;
10341;SDS011;5216;54.602;18.356;2022-11-14T06:20:24;7.20;;;6.50;;
10341;SDS011;5216;54.602;18.356;2022-11-14T06:22:52;8.97;;;6.63;;
10341;SDS011;5216;54.602;18.356;2022-11-14T06:25:21;8.00;;;6.73;;
10341;SDS011;5216;54.602;18.356;2022-11-14T06:27:47;8.57;;;7.40;;
10341;SDS011;5216;54.602;18.356;2022-11-14T06:30:16;9.17;;;7.30;;
10341;SDS011;5216;54.602;18.356;2022-11-14T06:32:43;8.83;;;7.23;;
10341;SDS011;5216;54.602;18.356;2022-11-14T06:35:10;7.53;;;6.77;;
10341;SDS011;5216;54.602;18.356;2022-11-14T06:37:36;9.20;;;7.37;;
10341;SDS011;5216;54.602;18.356;2022-11-14T06:40:03;12.10;;;7.57;;
10341;SDS011;5216;54.602;18.356;2022-11-14T06:42:29;10.10;;;8.93;;
10341;SDS011;5216;54.602;18.356;2022-11-14T06:44:56;9.57;;;7.77;;
10341;SDS011;5216;54.602;18.356;2022-11-14T06:47:22;9.20;;;7.60;;
10341;SDS011;5216;54.602;18.356;2022-11-14T06:49:51;11.20;;;8.20;;
10341;SDS011;5216;54.602;18.356;2022-11-14T06:52:17;9.53;;;8.07;;
10341;SDS011;5216;54.602;18.356;2022-11-14T06:54:44;10.53;;;8.10;;
10341;SDS011;5216;54.602;18.356;2022-11-14T06:57:10;12.30;;;9.30;;
10341;SDS011;5216;54.602;18.356;2022-11-14T06:59:37;11.47;;;9.33;;
10341;SDS011;5216;54.602;18.356;2022-11-14T07:02:03;13.90;;;9.73;;
10341;SDS011;5216;54.602;18.356;2022-11-14T07:04:30;12.13;;;8.90;;
10341;SDS011;5216;54.602;18.356;2022-11-14T07:06:56;16.50;;;13.17;;
10341;SDS011;5216;54.602;18.356;2022-11-14T07:09:23;14.90;;;10.73;;
10341;SDS011;5216;54.602;18.356;2022-11-14T07:11:49;13.93;;;9.90;;
10341;SDS011;5216;54.602;18.356;2022-11-14T07:14:16;13.03;;;9.77;;
10341;SDS011;5216;54.602;18.356;2022-11-14T07:16:42;10.97;;;9.77;;
10341;SDS011;5216;54.602;18.356;2022-11-14T07:19:09;13.00;;;10.43;;
10341;SDS011;5216;54.602;18.356;2022-11-14T07:21:36;14.13;;;11.20;;
10341;SDS011;5216;54.602;18.356;2022-11-14T07:24:02;14.73;;;11.63;;
10341;SDS011;5216;54.602;18.356;2022-11-14T07:26:28;15.07;;;11.13;;
10341;SDS011;5216;54.602;18.356;2022-11-14T07:28:55;12.40;;;10.47;;
10341;SDS011;5216;54.602;18.356;2022-11-14T07:31:28;13.00;;;11.20;;
10341;SDS011;5216;54.602;18.356;2022-11-14T07:33:54;12.43;;;10.63;;
10341;SDS011;5216;54.602;18.356;2022-11-14T07:36:21;15.30;;;11.30;;
10341;SDS011;5216;54.602;18.356;2022-11-14T07:38:48;14.53;;;10.53;;
10341;SDS011;5216;54.602;18.356;2022-11-14T07:41:15;13.40;;;11.27;;
10341;SDS011;5216;54.602;18.356;2022-11-14T07:43:41;13.93;;;11.50;;
10341;SDS011;5216;54.602;18.356;2022-11-14T07:46:12;14.57;;;11.17;;
10341;SDS011;5216;54.602;18.356;2022-11-14T07:48:39;14.23;;;10.87;;
10341;SDS011;5216;54.602;18.356;2022-11-14T07:51:08;13.07;;;10.87;;
10341;SDS011;5216;54.602;18.356;2022-11-14T07:53:34;16.13;;;11.40;;
10341;SDS011;5216;54.602;18.356;2022-11-14T07:56:02;14.13;;;11.60;;
10341;SDS011;5216;54.602;18.356;2022-11-14T07:58:29;22.73;;;17.40;;
10341;SDS011;5216;54.602;18.356;2022-11-14T08:00:59;16.23;;;14.53;;
10341;SDS011;5216;54.602;18.356;2022-11-14T08:03:26;16.07;;;12.07;;
10341;SDS011;5216;54.602;18.356;2022-11-14T08:08:45;14.23;;;11.60;;
10341;SDS011;5216;54.602;18.356;2022-11-14T08:11:13;15.53;;;11.80;;
10341;SDS011;5216;54.602;18.356;2022-11-14T08:14:02;12.90;;;11.50;;
10341;SDS011;5216;54.602;18.356;2022-11-14T08:16:29;15.40;;;11.37;;
10341;SDS011;5216;54.602;18.356;2022-11-14T08:18:56;13.87;;;11.73;;
10341;SDS011;5216;54.602;18.356;2022-11-14T08:21:22;14.07;;;11.73;;
10341;SDS011;5216;54.602;18.356;2022-11-14T08:23:49;14.37;;;12.33;;
10341;SDS011;5216;54.602;18.356;2022-11-14T08:26:15;18.33;;;12.90;;
10341;SDS011;5216;54.602;18.356;2022-11-14T08:28:42;17.73;;;13.07;;
10341;SDS011;5216;54.602;18.356;2022-11-14T08:31:08;17.40;;;12.90;;
10341;SDS011;5216;54.602;18.356;2022-11-14T08:33:35;15.47;;;12.67;;
10341;SDS011;5216;54.602;18.356;2022-11-14T08:36:02;15.57;;;12.40;;
10341;SDS011;5216;54.602;18.356;2022-11-14T08:38:29;13.23;;;10.70;;
10341;SDS011;5216;54.602;18.356;2022-11-14T08:41:06;13.47;;;10.73;;
10341;SDS011;5216;54.602;18.356;2022-11-14T08:43:32;12.87;;;11.47;;
10341;SDS011;5216;54.602;18.356;2022-11-14T08:45:59;11.97;;;10.70;;
10341;SDS011;5216;54.602;18.356;2022-11-14T08:48:27;11.93;;;9.90;;
10341;SDS011;5216;54.602;18.356;2022-11-14T08:50:55;13.33;;;10.93;;
10341;SDS011;5216;54.602;18.356;2022-11-14T08:53:21;13.60;;;11.37;;
10341;SDS011;5216;54.602;18.356;2022-11-14T08:55:48;12.93;;;11.27;;
10341;SDS011;5216;54.602;18.356;2022-11-14T08:58:15;12.13;;;10.20;;
10341;SDS011;5216;54.602;18.356;2022-11-14T09:00:41;18.80;;;10.70;;
10341;SDS011;5216;54.602;18.356;2022-11-14T09:03:08;12.00;;;10.70;;
10341;SDS011;5216;54.602;18.356;2022-11-14T09:05:35;14.80;;;11.23;;
10341;SDS011;5216;54.602;18.356;2022-11-14T09:08:02;14.47;;;10.80;;
10341;SDS011;5216;54.602;18.356;2022-11-14T09:10:28;10.93;;;9.40;;
10341;SDS011;5216;54.602;18.356;2022-11-14T09:12:55;11.93;;;9.40;;
10341;SDS011;5216;54.602;18.356;2022-11-14T09:15:22;12.47;;;9.63;;
10341;SDS011;5216;54.602;18.356;2022-11-14T09:17:51;12.43;;;9.30;;
10341;SDS011;5216;54.602;18.356;2022-11-14T09:20:18;12.37;;;9.37;;
10341;SDS011;5216;54.602;18.356;2022-11-14T09:22:45;12.97;;;10.23;;
10341;SDS011;5216;54.602;18.356;2022-11-14T09:25:11;13.27;;;9.97;;
10341;SDS011;5216;54.602;18.356;2022-11-14T09:27:38;12.50;;;10.93;;
10341;SDS011;5216;54.602;18.356;2022-11-14T09:30:04;12.90;;;10.87;;
10341;SDS011;5216;54.602;18.356;2022-11-14T09:32:31;13.77;;;11.63;;
10341;SDS011;5216;54.602;18.356;2022-11-14T09:35:00;15.93;;;13.10;;
10341;SDS011;5216;54.602;18.356;2022-11-14T09:37:26;15.80;;;12.77;;
10341;SDS011;5216;54.602;18.356;2022-11-14T09:39:57;12.27;;;10.27;;
10341;SDS011;5216;54.602;18.356;2022-11-14T09:45:28;10.77;;;8.30;;
10341;SDS011;5216;54.602;18.356;2022-11-14T09:47:59;12.27;;;9.33;;
10341;SDS011;5216;54.602;18.356;2022-11-14T09:50:29;10.20;;;9.10;;
10341;SDS011;5216;54.602;18.356;2022-11-14T09:52:59;9.03;;;8.13;;
10341;SDS011;5216;54.602;18.356;2022-11-14T09:55:28;9.80;;;7.87;;
10341;SDS011;5216;54.602;18.356;2022-11-14T09:58:02;8.77;;;7.87;;
10341;SDS011;5216;54.602;18.356;2022-11-14T10:00:37;8.87;;;7.90;;
10341;SDS011;5216;54.602;18.356;2022-11-14T10:13:12;10.10;;;8.37;;
10341;SDS011;5216;54.602;18.356;2022-11-14T10:15:41;10.93;;;8.73;;
10341;SDS011;5216;54.602;18.356;2022-11-14T10:18:14;14.83;;;11.90;;
10341;SDS011;5216;54.602;18.356;2022-11-14T10:20:46;10.97;;;9.30;;
10341;SDS011;5216;54.602;18.356;2022-11-14T10:33:25;7.77;;;6.97;;
10341;SDS011;5216;54.602;18.356;2022-11-14T10:36:00;8.07;;;6.00;;
10341;SDS011;5216;54.602;18.356;2022-11-14T10:38:46;8.50;;;5.80;;
10341;SDS011;5216;54.602;18.356;2022-11-14T10:41:14;5.90;;;5.30;;
10341;SDS011;5216;54.602;18.356;2022-11-14T10:44:01;6.30;;;5.70;;
10341;SDS011;5216;54.602;18.356;2022-11-14T10:48:57;6.00;;;5.40;;
10341;SDS011;5216;54.602;18.356;2022-11-14T10:51:31;16.03;;;12.17;;
10341;SDS011;5216;54.602;18.356;2022-11-14T10:54:00;15.33;;;12.33;;
10341;SDS011;5216;54.602;18.356;2022-11-14T10:56:27;9.20;;;6.67;;
10341;SDS011;5216;54.602;18.356;2022-11-14T10:58:53;7.93;;;6.87;;
10341;SDS011;5216;54.602;18.356;2022-11-14T11:04:20;6.60;;;6.00;;
10341;SDS011;5216;54.602;18.356;2022-11-14T11:06:48;8.03;;;5.83;;
10341;SDS011;5216;54.602;18.356;2022-11-14T11:09:16;6.70;;;6.00;;
10341;SDS011;5216;54.602;18.356;2022-11-14T11:12:17;6.17;;;5.57;;
10341;SDS011;5216;54.602;18.356;2022-11-14T11:14:45;7.20;;;5.90;;
10341;SDS011;5216;54.602;18.356;2022-11-14T11:19:41;8.10;;;7.03;;
10341;SDS011;5216;54.602;18.356;2022-11-14T11:22:22;8.47;;;7.13;;
10341;SDS011;5216;54.602;18.356;2022-11-14T11:24:49;6.63;;;5.90;;
10341;SDS011;5216;54.602;18.356;2022-11-14T11:27:19;8.50;;;6.27;;
10341;SDS011;5216;54.602;18.356;2022-11-14T11:29:49;7.10;;;6.27;;
10341;SDS011;5216;54.602;18.356;2022-11-14T11:32:26;9.10;;;6.50;;
10341;SDS011;5216;54.602;18.356;2022-11-14T11:34:53;8.33;;;6.93;;
10341;SDS011;5216;54.602;18.356;2022-11-14T11:40:13;9.23;;;6.50;;
10341;SDS011;5216;54.602;18.356;2022-11-14T11:45:36;9.93;;;6.73;;
10341;SDS011;5216;54.602;18.356;2022-11-14T11:48:07;7.53;;;6.83;;
10341;SDS011;5216;54.602;18.356;2022-11-14T11:50:37;8.27;;;7.00;;
10341;SDS011;5216;54.602;18.356;2022-11-14T11:55:41;9.53;;;7.30;;
10341;SDS011;5216;54.602;18.356;2022-11-14T12:00:35;8.00;;;6.63;;
10341;SDS011;5216;54.602;18.356;2022-11-14T12:03:01;9.27;;;7.90;;
10341;SDS011;5216;54.602;18.356;2022-11-14T12:05:35;9.53;;;8.53;;
10341;SDS011;5216;54.602;18.356;2022-11-14T12:10:47;8.67;;;7.07;;
10341;SDS011;5216;54.602;18.356;2022-11-14T12:13:21;7.93;;;7.13;;
10341;SDS011;5216;54.602;18.356;2022-11-14T12:18:52;11.97;;;7.53;;
10341;SDS011;5216;54.602;18.356;2022-11-14T12:31:51;9.13;;;8.17;;
10341;SDS011;5216;54.602;18.356;2022-11-14T12:34:32;9.27;;;8.30;;
10341;SDS011;5216;54.602;18.356;2022-11-14T12:37:06;8.33;;;7.40;;
10341;SDS011;5216;54.602;18.356;2022-11-14T12:39:33;9.33;;;7.93;;
10341;SDS011;5216;54.602;18.356;2022-11-14T12:42:04;8.57;;;7.70;;
10341;SDS011;5216;54.602;18.356;2022-11-14T12:44:37;9.60;;;8.70;;
10341;SDS011;5216;54.602;18.356;2022-11-14T12:49:36;9.20;;;8.30;;
10341;SDS011;5216;54.602;18.356;2022-11-14T12:52:03;9.67;;;8.63;;
10341;SDS011;5216;54.602;18.356;2022-11-14T12:54:43;10.30;;;8.87;;
10341;SDS011;5216;54.602;18.356;2022-11-14T12:57:13;9.17;;;8.27;;
10341;SDS011;5216;54.602;18.356;2022-11-14T13:00:02;9.37;;;8.47;;
10341;SDS011;5216;54.602;18.356;2022-11-14T13:05:17;10.07;;;9.07;;
10341;SDS011;5216;54.602;18.356;2022-11-14T13:10:44;9.80;;;8.80;;
10341;SDS011;5216;54.602;18.356;2022-11-14T13:13:11;9.83;;;8.83;;
10341;SDS011;5216;54.602;18.356;2022-11-14T13:15:59;12.63;;;9.97;;
10341;SDS011;5216;54.602;18.356;2022-11-14T13:18:51;12.40;;;10.10;;
10341;SDS011;5216;54.602;18.356;2022-11-14T13:21:37;10.80;;;9.70;;
10341;SDS011;5216;54.602;18.356;2022-11-14T13:26:46;10.67;;;9.20;;
10341;SDS011;5216;54.602;18.356;2022-11-14T13:31:58;14.77;;;13.20;;
10341;SDS011;5216;54.602;18.356;2022-11-14T13:36:57;10.90;;;9.80;;
10341;SDS011;5216;54.602;18.356;2022-11-14T13:39:35;10.83;;;9.83;;
10341;SDS011;5216;54.602;18.356;2022-11-14T13:42:13;11.73;;;10.40;;
10341;SDS011;5216;54.602;18.356;2022-11-14T13:52:27;11.63;;;9.90;;
10341;SDS011;5216;54.602;18.356;2022-11-14T13:54:56;12.10;;;10.67;;
10341;SDS011;5216;54.602;18.356;2022-11-14T13:57:26;14.57;;;12.90;;
10341;SDS011;5216;54.602;18.356;2022-11-14T14:00:01;11.30;;;10.20;;
10341;SDS011;5216;54.602;18.356;2022-11-14T14:10:26;10.70;;;9.70;;
10341;SDS011;5216;54.602;18.356;2022-11-14T14:13:02;10.83;;;9.83;;
10341;SDS011;5216;54.602;18.356;2022-11-14T14:15:42;9.93;;;9.03;;
10341;SDS011;5216;54.602;18.356;2022-11-14T14:18:15;10.40;;;9.50;;
10341;SDS011;5216;54.602;18.356;2022-11-14T14:23:45;11.60;;;10.40;;
10341;SDS011;5216;54.602;18.356;2022-11-14T14:26:30;12.17;;;10.27;;
10341;SDS011;5216;54.602;18.356;2022-11-14T14:31:43;12.43;;;11.23;;
10341;SDS011;5216;54.602;18.356;2022-11-14T14:34:26;13.53;;;12.27;;
10341;SDS011;5216;54.602;18.356;2022-11-14T14:36:56;12.87;;;11.67;;
10341;SDS011;5216;54.602;18.356;2022-11-14T14:39:27;12.13;;;10.80;;
10341;SDS011;5216;54.602;18.356;2022-11-14T14:41:54;14.73;;;13.27;;
10341;SDS011;5216;54.602;18.356;2022-11-14T14:44:25;16.50;;;14.80;;
10341;SDS011;5216;54.602;18.356;2022-11-14T14:46:53;15.10;;;13.70;;
10341;SDS011;5216;54.602;18.356;2022-11-14T14:49:24;12.83;;;11.53;;
10341;SDS011;5216;54.602;18.356;2022-11-14T14:51:52;13.30;;;11.97;;
10341;SDS011;5216;54.602;18.356;2022-11-14T14:54:24;17.23;;;15.50;;
10341;SDS011;5216;54.602;18.356;2022-11-14T14:56:52;15.67;;;14.07;;
10341;SDS011;5216;54.602;18.356;2022-11-14T14:59:22;17.00;;;15.30;;
10341;SDS011;5216;54.602;18.356;2022-11-14T15:01:49;14.27;;;12.10;;
10341;SDS011;5216;54.602;18.356;2022-11-14T15:04:16;15.70;;;14.20;;
10341;SDS011;5216;54.602;18.356;2022-11-14T15:06:44;12.97;;;11.77;;
10341;SDS011;5216;54.602;18.356;2022-11-14T15:11:44;13.70;;;12.30;;
10341;SDS011;5216;54.602;18.356;2022-11-14T15:14:12;18.53;;;16.67;;
10341;SDS011;5216;54.602;18.356;2022-11-14T15:16:39;16.77;;;15.03;;
10341;SDS011;5216;54.602;18.356;2022-11-14T15:19:05;12.73;;;11.53;;
10341;SDS011;5216;54.602;18.356;2022-11-14T15:21:35;13.00;;;11.70;;
10341;SDS011;5216;54.602;18.356;2022-11-14T15:24:10;12.93;;;11.80;;
10341;SDS011;5216;54.602;18.356;2022-11-14T15:26:38;14.33;;;12.87;;
10341;SDS011;5216;54.602;18.356;2022-11-14T15:29:26;15.03;;;13.53;;
10341;SDS011;5216;54.602;18.356;2022-11-14T15:31:52;15.60;;;12.77;;
10341;SDS011;5216;54.602;18.356;2022-11-14T15:34:35;14.20;;;12.80;;
10341;SDS011;5216;54.602;18.356;2022-11-14T15:37:21;16.43;;;14.83;;
10341;SDS011;5216;54.602;18.356;2022-11-14T15:39:47;16.90;;;15.20;;
10341;SDS011;5216;54.602;18.356;2022-11-14T15:44:49;16.13;;;14.63;;
10341;SDS011;5216;54.602;18.356;2022-11-14T15:47:17;15.73;;;14.23;;
10341;SDS011;5216;54.602;18.356;2022-11-14T15:50:03;16.13;;;14.63;;
10341;SDS011;5216;54.602;18.356;2022-11-14T15:52:36;17.37;;;15.77;;
10341;SDS011;5216;54.602;18.356;2022-11-14T15:55:14;18.53;;;15.87;;
10341;SDS011;5216;54.602;18.356;2022-11-14T15:57:40;17.23;;;15.63;;
10341;SDS011;5216;54.602;18.356;2022-11-14T16:00:13;17.50;;;15.80;;
10341;SDS011;5216;54.602;18.356;2022-11-14T16:02:42;17.07;;;15.47;;
10341;SDS011;5216;54.602;18.356;2022-11-14T16:05:12;19.10;;;17.30;;
10341;SDS011;5216;54.602;18.356;2022-11-14T16:07:39;18.93;;;17.20;;
10341;SDS011;5216;54.602;18.356;2022-11-14T16:10:12;19.50;;;17.60;;
10341;SDS011;5216;54.602;18.356;2022-11-14T16:12:39;21.07;;;19.07;;
10341;SDS011;5216;54.602;18.356;2022-11-14T16:15:06;20.40;;;18.30;;
10341;SDS011;5216;54.602;18.356;2022-11-14T16:17:33;20.97;;;18.77;;
10341;SDS011;5216;54.602;18.356;2022-11-14T16:20:01;19.63;;;17.73;;
10341;SDS011;5216;54.602;18.356;2022-11-14T16:22:28;19.93;;;17.83;;
10341;SDS011;5216;54.602;18.356;2022-11-14T16:24:55;20.73;;;18.63;;
10341;SDS011;5216;54.602;18.356;2022-11-14T16:27:22;22.20;;;19.23;;
10341;SDS011;5216;54.602;18.356;2022-11-14T16:29:48;21.60;;;19.30;;
10341;SDS011;5216;54.602;18.356;2022-11-14T16:32:15;23.70;;;19.77;;
10341;SDS011;5216;54.602;18.356;2022-11-14T16:34:42;21.77;;;19.47;;
10341;SDS011;5216;54.602;18.356;2022-11-14T16:37:12;21.50;;;19.40;;